Time;durP1;ratioP1;P1;durP2;ratioP2;P2;SDS_P1;SDS_P2;PMS_P1;PMS_P2;Temp;Humidity;BMP_temperature;BMP_pressure;BME280_temperature;BME280_humidity;BME280_pressure;Samples;Min_cycle;Max_cycle;Signal;HPM_P1;HPM_P2
2021/09/24 00:01:46;;;;;;;21.90;4.53;;;;;;;13.88;100.00;100660.47;5052788;28;20222;-75
2021/09/24 00:04:14;;;;;;;25.67;4.23;;;;;;;13.97;100.00;100664.16;5036967;28;20186;-75
2021/09/24 00:06:45;;;;;;;18.37;4.17;;;;;;;13.89;100.00;100665.63;5036517;28;20222;-76
2021/09/24 00:09:11;;;;;;;25.63;4.60;;;;;;;13.80;100.00;100666.59;5035979;28;20193;-75
2021/09/24 00:11:39;;;;;;;21.43;3.63;;;;;;;13.70;100.00;100658.53;5049707;28;20211;-75
2021/09/24 00:14:08;;;;;;;18.30;4.30;;;;;;;13.83;100.00;100647.72;5018457;28;20206;-75
2021/09/24 00:16:34;;;;;;;20.87;3.53;;;;;;;13.71;100.00;100654.69;5024087;28;20221;-76
2021/09/24 00:19:02;;;;;;;18.70;3.70;;;;;;;13.73;100.00;100666.13;5053000;28;20568;-74
2021/09/24 00:21:30;;;;;;;20.13;4.00;;;;;;;13.72;100.00;100658.25;5038760;28;20688;-76
2021/09/24 00:23:58;;;;;;;20.00;4.13;;;;;;;13.60;100.00;100661.38;5020838;28;20179;-74
2021/09/24 00:26:26;;;;;;;19.47;3.80;;;;;;;13.61;100.00;100652.09;5035379;28;20221;-75
2021/09/24 00:28:54;;;;;;;20.83;3.70;;;;;;;13.71;100.00;100657.41;5069646;28;20183;-75
2021/09/24 00:31:20;;;;;;;21.27;4.77;;;;;;;13.76;100.00;100659.28;5052408;28;20805;-75
2021/09/24 00:33:47;;;;;;;21.10;3.73;;;;;;;13.83;100.00;100660.56;5053043;28;20203;-74
2021/09/24 00:36:15;;;;;;;19.87;4.20;;;;;;;13.82;100.00;100651.53;5051309;28;20230;-74
2021/09/24 00:38:41;;;;;;;23.23;4.20;;;;;;;13.70;100.00;100650.34;5069818;28;20190;-73
2021/09/24 00:41:07;;;;;;;24.87;4.00;;;;;;;13.77;100.00;100645.31;5052510;28;20211;-75
2021/09/24 00:43:33;;;;;;;23.07;4.43;;;;;;;13.75;100.00;100633.09;5052539;28;20180;-75
2021/09/24 00:46:01;;;;;;;19.53;3.80;;;;;;;13.61;100.00;100633.00;5035444;28;20237;-73
2021/09/24 00:48:27;;;;;;;14.80;3.60;;;;;;;13.65;100.00;100639.50;5035901;28;20186;-75
2021/09/24 00:50:55;;;;;;;22.03;4.10;;;;;;;13.52;100.00;100642.94;5019521;28;20347;-73
2021/09/24 00:53:23;;;;;;;19.93;3.87;;;;;;;13.49;100.00;100637.25;5052384;28;20210;-74
2021/09/24 00:55:48;;;;;;;25.30;4.33;;;;;;;13.39;100.00;100650.19;5048811;28;20218;-73
2021/09/24 00:58:14;;;;;;;19.73;4.50;;;;;;;13.34;100.00;100633.88;5032660;28;20264;-74
2021/09/24 01:00:44;;;;;;;19.30;4.00;;;;;;;13.39;100.00;100640.09;5016169;28;20223;-74
2021/09/24 01:03:12;;;;;;;21.30;3.80;;;;;;;13.38;100.00;100640.38;5047129;28;20184;-73
2021/09/24 01:05:37;;;;;;;17.37;3.20;;;;;;;13.38;100.00;100645.84;5051891;28;20268;-73
2021/09/24 01:08:05;;;;;;;19.07;3.40;;;;;;;13.29;100.00;100650.31;5052470;28;20210;-75
2021/09/24 01:10:31;;;;;;;17.33;3.80;;;;;;;13.18;100.00;100635.97;5055648;28;20560;-73
2021/09/24 01:12:56;;;;;;;21.37;4.27;;;;;;;13.28;100.00;100640.50;5056061;28;20202;-73
2021/09/24 01:15:24;;;;;;;17.50;3.73;;;;;;;13.28;100.00;100645.97;5055194;28;20179;-73
2021/09/24 01:17:52;;;;;;;20.00;3.77;;;;;;;13.33;100.00;100637.72;5055390;28;20592;-74
2021/09/24 01:20:22;;;;;;;18.63;3.57;;;;;;;13.37;100.00;100638.75;5030428;28;20187;-74
2021/09/24 01:22:48;;;;;;;18.57;4.10;;;;;;;13.23;100.00;100646.03;5035617;28;20190;-73
2021/09/24 01:25:14;;;;;;;21.13;3.77;;;;;;;13.30;100.00;100650.03;5035233;28;20180;-74
2021/09/24 01:27:42;;;;;;;19.03;3.77;;;;;;;13.35;100.00;100654.59;5025528;28;20667;-73
2021/09/24 01:30:08;;;;;;;17.13;3.50;;;;;;;13.24;100.00;100655.81;5022226;28;20645;-74
2021/09/24 01:32:34;;;;;;;22.33;4.27;;;;;;;13.20;100.00;100660.22;5039303;28;20218;-73
2021/09/24 01:35:03;;;;;;;20.03;3.93;;;;;;;13.28;100.00;100652.22;5039443;28;20290;-73
2021/09/24 01:37:28;;;;;;;21.17;3.30;;;;;;;13.27;100.00;100650.59;5034869;28;20647;-73
2021/09/24 01:39:54;;;;;;;17.13;3.17;;;;;;;13.26;100.00;100654.44;5019143;28;20190;-75
2021/09/24 01:42:23;;;;;;;16.17;3.23;;;;;;;13.20;100.00;100660.22;5021420;28;20216;-74
2021/09/24 01:44:51;;;;;;;23.80;4.27;;;;;;;13.22;100.00;100658.84;5071599;28;20305;-74
2021/09/24 01:47:18;;;;;;;21.93;3.80;;;;;;;13.15;100.00;100663.03;5053921;28;20263;-74
2021/09/24 01:49:44;;;;;;;19.47;3.90;;;;;;;13.16;100.00;100653.72;5055270;28;20183;-74
2021/09/24 01:52:10;;;;;;;17.70;3.50;;;;;;;13.21;100.00;100661.88;5054730;28;20283;-74
2021/09/24 01:54:35;;;;;;;14.27;3.23;;;;;;;13.26;100.00;100678.16;5034056;28;20249;-74
2021/09/24 01:57:03;;;;;;;18.80;3.60;;;;;;;13.12;100.00;100675.31;5034262;28;20727;-73
2021/09/24 01:59:33;;;;;;;16.50;3.67;;;;;;;12.96;100.00;100664.03;5052572;28;20186;-76
2021/09/24 02:01:59;;;;;;;22.07;3.90;;;;;;;13.01;100.00;100662.06;5038596;28;20672;-74
2021/09/24 02:04:26;;;;;;;19.40;4.20;;;;;;;12.98;100.00;100673.53;5051260;28;20352;-75
2021/09/24 02:06:54;;;;;;;19.67;4.10;;;;;;;12.96;100.00;100678.47;5018030;28;20276;-74
2021/09/24 02:09:20;;;;;;;20.20;4.00;;;;;;;12.97;100.00;100677.38;5032978;28;20258;-74
2021/09/24 02:11:47;;;;;;;15.93;3.67;;;;;;;12.84;100.00;100679.97;5038144;28;20231;-74
2021/09/24 02:14:15;;;;;;;18.97;3.53;;;;;;;12.86;100.00;100673.13;5037986;28;20217;-73
2021/09/24 02:16:43;;;;;;;21.77;4.07;;;;;;;12.87;100.00;100674.72;5053703;28;20234;-74
2021/09/24 02:19:08;;;;;;;20.70;3.60;;;;;;;12.92;100.00;100676.59;5037916;28;20199;-74
2021/09/24 02:21:34;;;;;;;18.20;3.87;;;;;;;12.82;100.00;100688.41;5025057;28;20226;-74
2021/09/24 02:24:02;;;;;;;16.83;3.43;;;;;;;12.82;100.00;100674.78;5037876;28;20186;-74
2021/09/24 02:26:29;;;;;;;22.50;4.03;;;;;;;12.90;100.00;100682.34;5037415;28;20594;-75
2021/09/24 02:28:57;;;;;;;18.77;3.33;;;;;;;12.94;100.00;100672.47;5054581;28;20266;-74
2021/09/24 02:31:28;;;;;;;14.80;3.27;;;;;;;12.90;100.00;100682.34;5021007;28;20218;-76
2021/09/24 02:34:01;;;;;;;17.37;3.70;;;;;;;12.85;100.00;100674.19;5055313;28;20202;-74
2021/09/24 02:36:31;;;;;;;21.90;3.60;;;;;;;12.91;100.00;100672.25;5053272;28;20234;-74
2021/09/24 02:38:57;;;;;;;14.40;2.93;;;;;;;12.90;100.00;100671.44;5070331;28;20179;-74
2021/09/24 02:41:23;;;;;;;18.43;3.80;;;;;;;12.89;100.00;100674.44;5037297;28;20226;-74
2021/09/24 02:43:48;;;;;;;21.27;3.73;;;;;;;12.79;100.00;100669.06;5054511;28;20194;-75
2021/09/24 02:46:14;;;;;;;16.27;3.20;;;;;;;12.79;100.00;100664.44;5036687;28;20214;-74
2021/09/24 02:48:44;;;;;;;19.07;3.43;;;;;;;12.89;100.00;100675.28;5050191;28;20679;-74
2021/09/24 02:51:12;;;;;;;14.03;3.00;;;;;;;12.76;100.00;100673.19;5071318;28;20210;-75
2021/09/24 02:53:40;;;;;;;20.20;4.33;;;;;;;12.74;100.00;100666.38;5037175;28;20274;-73
2021/09/24 02:56:05;;;;;;;15.83;3.40;;;;;;;12.86;100.00;100667.66;5036445;28;20238;-74
2021/09/24 02:58:31;;;;;;;21.60;4.60;;;;;;;12.77;100.00;100674.00;5053711;28;20187;-74
2021/09/24 03:00:56;;;;;;;17.87;4.17;;;;;;;12.72;100.00;100663.13;5053866;28;20218;-73
2021/09/24 03:03:27;;;;;;;18.43;4.50;;;;;;;12.67;100.00;100660.44;5054011;28;20548;-74
2021/09/24 03:05:52;;;;;;;16.23;5.10;;;;;;;12.68;100.00;100671.06;5036285;28;20211;-74
2021/09/24 03:08:18;;;;;;;20.27;5.50;;;;;;;12.69;100.00;100664.53;5020634;28;20539;-74
2021/09/24 03:10:44;;;;;;;23.30;6.40;;;;;;;12.70;100.00;100674.31;5033452;28;20703;-74
2021/09/24 03:13:09;;;;;;;23.90;6.77;;;;;;;12.64;100.00;100671.13;5033954;28;20204;-73
2021/09/24 03:15:37;;;;;;;18.87;6.73;;;;;;;12.54;100.00;100677.44;5049192;28;20222;-74
2021/09/24 03:18:03;;;;;;;19.77;7.77;;;;;;;12.60;100.00;100684.50;5033438;28;20712;-74
2021/09/24 03:20:28;;;;;;;21.17;7.33;;;;;;;12.51;100.00;100688.91;5291698;22;20255;-72
2021/09/24 03:22:59;;;;;;;20.80;7.90;;;;;;;12.64;100.00;100692.91;5028563;28;20883;-73
2021/09/24 03:25:27;;;;;;;23.63;8.00;;;;;;;12.59;100.00;100696.47;5006872;28;20223;-75
2021/09/24 03:27:55;;;;;;;20.23;7.77;;;;;;;12.71;100.00;100688.78;5011390;28;20203;-73
2021/09/24 03:30:24;;;;;;;20.07;7.90;;;;;;;12.68;100.00;100692.84;5000371;28;20271;-74
2021/09/24 03:32:54;;;;;;;24.10;8.03;;;;;;;12.76;100.00;100705.91;5010339;28;20187;-74
2021/09/24 03:35:20;;;;;;;23.67;8.37;;;;;;;12.74;100.00;100694.44;5008437;28;20233;-75
2021/09/24 03:37:45;;;;;;;23.53;8.10;;;;;;;12.72;100.00;100682.19;5011786;28;20763;-74
2021/09/24 03:40:17;;;;;;;22.90;8.33;;;;;;;12.72;100.00;100685.72;5008839;28;20192;-74
2021/09/24 03:42:45;;;;;;;20.40;7.13;;;;;;;12.73;100.00;100697.47;5021476;28;20185;-75
2021/09/24 03:45:11;;;;;;;21.37;7.13;;;;;;;12.77;100.00;100696.59;5022104;28;20179;-74
2021/09/24 03:47:36;;;;;;;20.80;6.37;;;;;;;12.82;100.00;100696.59;5033070;28;20614;-74
2021/09/24 03:50:05;;;;;;;21.03;5.97;;;;;;;12.83;100.00;100698.22;5017967;28;20188;-74
2021/09/24 03:52:31;;;;;;;20.30;6.27;;;;;;;12.84;100.00;100688.16;5017102;28;20669;-74
2021/09/24 03:54:59;;;;;;;20.50;5.90;;;;;;;12.81;100.00;100689.50;5043701;28;20574;-74
2021/09/24 03:57:27;;;;;;;15.67;5.17;;;;;;;12.94;100.00;100694.31;5030489;28;20227;-75
2021/09/24 03:59:53;;;;;;;17.30;4.80;;;;;;;12.92;100.00;100691.03;5021036;28;20195;-74
2021/09/24 04:02:26;;;;;;;20.13;5.27;;;;;;;12.84;100.00;100694.41;5035095;28;20305;-74
2021/09/24 04:04:54;;;;;;;19.43;5.17;;;;;;;12.97;100.00;100699.19;5006030;28;20187;-75
2021/09/24 04:07:22;;;;;;;19.23;4.47;;;;;;;12.86;100.00;100692.19;5038836;28;20216;-74
2021/09/24 04:09:51;;;;;;;22.63;4.73;;;;;;;12.83;100.00;100697.41;5014629;28;20561;-74
2021/09/24 04:12:18;;;;;;;18.53;4.77;;;;;;;12.84;100.00;100688.16;5009717;28;20227;-75
2021/09/24 04:14:51;;;;;;;13.70;3.63;;;;;;;12.89;100.00;100698.97;5023859;28;20204;-74
2021/09/24 04:17:20;;;;;;;20.57;4.30;;;;;;;12.88;100.00;100694.66;5030016;28;20727;-73
2021/09/24 04:19:45;;;;;;;13.63;4.17;;;;;;;12.95;100.00;100679.59;5038168;28;20629;-73
2021/09/24 04:22:11;;;;;;;15.97;3.63;;;;;;;12.93;100.00;100681.78;5029122;28;20211;-74
2021/09/24 04:24:36;;;;;;;16.13;3.67;;;;;;;13.11;100.00;100683.75;5000068;28;20190;-74
2021/09/24 04:27:02;;;;;;;18.23;4.07;;;;;;;12.99;100.00;100680.63;5031713;28;20227;-73
2021/09/24 04:29:32;;;;;;;16.10;4.33;;;;;;;12.79;100.00;100680.81;5020585;28;20269;-75
2021/09/24 04:32:00;;;;;;;21.93;4.40;;;;;;;12.91;100.00;100691.31;5023050;28;20660;-75
2021/09/24 04:34:28;;;;;;;17.00;3.67;;;;;;;12.85;100.00;100701.47;5044278;28;20219;-74
2021/09/24 04:36:56;;;;;;;21.23;4.27;;;;;;;12.92;100.00;100699.22;5029306;28;20281;-74
2021/09/24 04:39:22;;;;;;;21.37;4.17;;;;;;;13.02;100.00;100701.88;5022849;28;20242;-74
2021/09/24 04:41:51;;;;;;;14.93;3.70;;;;;;;13.00;100.00;100697.78;5046104;28;20220;-74
2021/09/24 04:44:16;;;;;;;13.73;3.53;;;;;;;12.98;100.00;100703.53;5044185;28;20193;-74
2021/09/24 04:46:46;;;;;;;15.23;3.33;;;;;;;12.95;100.00;100700.56;5006898;28;20231;-73
2021/09/24 04:49:12;;;;;;;16.40;3.37;;;;;;;13.03;100.00;100691.78;5017569;28;20191;-73
2021/09/24 04:51:40;;;;;;;15.77;3.10;;;;;;;13.18;100.00;100697.88;5023754;28;20247;-73
2021/09/24 04:54:08;;;;;;;14.20;3.37;;;;;;;13.21;100.00;100702.78;5009330;28;20605;-74
2021/09/24 04:56:33;;;;;;;13.90;3.03;;;;;;;13.06;100.00;100692.03;5027736;28;20244;-73
2021/09/24 04:58:59;;;;;;;13.10;4.03;;;;;;;13.14;100.00;100694.13;5041082;28;20715;-73
2021/09/24 05:01:25;;;;;;;13.47;3.20;;;;;;;12.97;100.00;100693.75;5040230;28;20757;-72
2021/09/24 05:03:50;;;;;;;15.57;3.53;;;;;;;13.00;100.00;100695.88;5036639;28;20180;-73
2021/09/24 05:06:16;;;;;;;11.63;3.17;;;;;;;12.96;100.00;100694.81;5013568;28;20697;-72
2021/09/24 05:08:41;;;;;;;16.93;3.67;;;;;;;13.06;100.00;100691.19;5031222;28;20190;-73
2021/09/24 05:11:12;;;;;;;19.43;3.80;;;;;;;13.18;100.00;100695.16;5014674;28;20211;-73
2021/09/24 05:13:37;;;;;;;14.77;3.70;;;;;;;13.12;100.00;100697.13;5044977;28;20647;-74
2021/09/24 05:16:05;;;;;;;14.83;3.60;;;;;;;13.15;100.00;100701.22;5006830;28;20204;-76
2021/09/24 05:18:31;;;;;;;11.90;3.40;;;;;;;13.16;100.00;100698.16;5007105;28;20235;-77
2021/09/24 05:20:56;;;;;;;15.70;3.50;;;;;;;13.29;100.00;100702.13;5044351;28;20676;-77
2021/09/24 05:23:22;;;;;;;20.27;3.87;;;;;;;13.46;100.00;100704.13;5016708;28;20652;-74
2021/09/24 05:25:50;;;;;;;13.50;3.10;;;;;;;13.43;100.00;100703.91;5045316;28;20765;-74
2021/09/24 05:28:25;;;;;;;18.60;3.47;;;;;;;13.39;100.00;100715.66;5045107;28;20216;-73
2021/09/24 05:30:53;;;;;;;14.50;2.80;;;;;;;13.57;100.00;100711.09;5030055;28;20261;-74
2021/09/24 05:33:19;;;;;;;13.07;3.00;;;;;;;13.57;100.00;100705.66;5016609;28;20726;-74
2021/09/24 05:35:47;;;;;;;13.90;3.40;;;;;;;13.49;100.00;100700.81;5043365;28;20219;-75
2021/09/24 05:38:15;;;;;;;11.30;3.30;;;;;;;13.45;100.00;100718.06;5028631;28;20293;-75
2021/09/24 05:40:41;;;;;;;9.20;2.93;;;;;;;13.49;100.00;100703.53;5019978;28;20239;-74
2021/09/24 05:43:09;;;;;;;12.30;3.03;;;;;;;13.60;100.00;100702.31;5014379;28;20230;-75
2021/09/24 05:45:39;;;;;;;14.27;3.10;;;;;;;13.61;100.00;100706.69;5022187;28;20598;-74
2021/09/24 05:48:07;;;;;;;11.80;3.00;;;;;;;13.56;100.00;100704.00;5028774;28;20207;-73
2021/09/24 05:50:35;;;;;;;10.40;2.87;;;;;;;13.69;100.00;100703.31;5033697;28;20220;-74
2021/09/24 05:53:02;;;;;;;10.03;2.70;;;;;;;13.83;100.00;100715.16;5028676;28;20188;-74
2021/09/24 05:55:28;;;;;;;10.67;2.80;;;;;;;13.77;100.00;100704.59;4999988;28;20223;-75
2021/09/24 05:57:56;;;;;;;10.97;2.67;;;;;;;13.74;100.00;100708.72;5004693;28;20200;-74
2021/09/24 06:00:24;;;;;;;10.17;2.47;;;;;;;14.00;100.00;100699.91;5014601;28;20188;-74
2021/09/24 06:02:50;;;;;;;12.33;2.60;;;;;;;13.92;100.00;100697.84;5023749;28;20192;-75
2021/09/24 06:05:16;;;;;;;11.73;2.50;;;;;;;14.04;100.00;100700.16;5031527;28;20180;-74
2021/09/24 06:07:44;;;;;;;9.10;2.40;;;;;;;13.96;100.00;100692.59;4982837;28;20208;-73
2021/09/24 06:10:10;;;;;;;9.83;2.50;;;;;;;14.17;100.00;100699.44;5015296;28;20270;-76
2021/09/24 06:12:38;;;;;;;11.10;2.83;;;;;;;14.22;100.00;100702.13;5032253;28;20185;-75
2021/09/24 06:15:04;;;;;;;12.70;2.60;;;;;;;14.17;100.00;100694.78;5015569;28;20215;-75
2021/09/24 06:17:30;;;;;;;11.87;2.53;;;;;;;14.07;100.00;100694.13;5005529;28;20224;-74
2021/09/24 06:19:56;;;;;;;9.57;2.10;;;;;;;14.09;100.00;100697.38;5014790;28;20235;-74
2021/09/24 06:22:24;;;;;;;11.90;2.67;;;;;;;14.12;100.00;100692.16;5043979;28;20224;-75
2021/09/24 06:24:50;;;;;;;9.07;2.20;;;;;;;14.25;100.00;100696.88;5031439;28;20177;-75
2021/09/24 06:27:18;;;;;;;9.10;2.13;;;;;;;14.23;100.00;100695.53;5014486;28;20667;-74
2021/09/24 06:29:51;;;;;;;8.90;2.47;;;;;;;14.36;100.00;100696.44;5031962;28;20191;-73
2021/09/24 06:32:17;;;;;;;12.17;2.47;;;;;;;14.44;100.00;100695.75;5034204;28;20302;-75
2021/09/24 06:34:43;;;;;;;11.67;2.30;;;;;;;14.38;100.00;100707.06;5052535;28;20207;-73
2021/09/24 06:37:11;;;;;;;9.87;2.30;;;;;;;14.47;100.00;100706.09;5016034;28;20227;-73
2021/09/24 06:39:39;;;;;;;11.30;2.63;;;;;;;14.59;100.00;100703.72;5015006;28;20642;-74
2021/09/24 06:42:05;;;;;;;11.77;2.30;;;;;;;14.65;100.00;100702.53;4998291;28;20255;-75
2021/09/24 06:44:33;;;;;;;7.37;2.00;;;;;;;14.43;100.00;100705.06;5034730;28;20171;-74
2021/09/24 06:47:04;;;;;;;8.13;2.10;;;;;;;14.56;100.00;100704.34;5033798;28;20215;-75
2021/09/24 06:49:29;;;;;;;9.33;2.43;;;;;;;14.72;100.00;100706.53;4996700;28;20219;-74
2021/09/24 06:51:57;;;;;;;6.97;1.67;;;;;;;14.59;100.00;100708.38;5003133;28;20216;-74
2021/09/24 06:54:25;;;;;;;11.60;2.37;;;;;;;14.55;100.00;100708.16;5029246;28;20204;-73
2021/09/24 06:56:51;;;;;;;9.97;2.00;;;;;;;14.73;100.00;100715.53;5013225;28;20228;-75
2021/09/24 06:59:17;;;;;;;6.67;2.00;;;;;;;14.76;100.00;100714.91;4998194;28;20780;-75
2021/09/24 07:01:44;;;;;;;7.30;2.33;;;;;;;14.71;100.00;100717.75;4997720;28;20223;-75
2021/09/24 07:04:12;;;;;;;8.93;2.03;;;;;;;14.83;100.00;100727.09;5032804;28;20183;-75
2021/09/24 07:06:38;;;;;;;8.30;2.40;;;;;;;14.81;100.00;100723.06;5016273;28;20224;-74
2021/09/24 07:09:06;;;;;;;10.93;2.63;;;;;;;15.02;100.00;100736.13;5020868;28;20184;-74
2021/09/24 07:11:35;;;;;;;10.33;2.13;;;;;;;15.14;100.00;100729.06;5030002;28;20637;-76
2021/09/24 07:14:01;;;;;;;8.32;1.90;;;;;;;14.99;100.00;100730.44;5042118;28;20321;-74
2021/09/24 07:16:29;;;;;;;8.23;2.17;;;;;;;15.20;100.00;100727.88;5016809;28;20285;-74
2021/09/24 07:18:55;;;;;;;9.10;2.23;;;;;;;15.12;100.00;100724.97;5027538;28;20184;-74
2021/09/24 07:21:25;;;;;;;10.90;2.27;;;;;;;15.25;100.00;100718.75;5021765;28;20223;-75
2021/09/24 07:23:51;;;;;;;10.37;1.97;;;;;;;15.33;100.00;100724.38;5003581;28;20208;-75
2021/09/24 07:26:19;;;;;;;10.43;2.17;;;;;;;15.23;100.00;100716.31;4980649;28;20219;-74
2021/09/24 07:28:47;;;;;;;8.00;2.03;;;;;;;15.30;100.00;100716.75;5037754;28;20730;-73
2021/09/24 07:31:17;;;;;;;10.07;2.07;;;;;;;15.34;100.00;100716.97;5016966;28;20227;-74
2021/09/24 07:33:43;;;;;;;7.73;2.00;;;;;;;15.19;100.00;100712.56;5011128;28;20216;-75
2021/09/24 07:36:11;;;;;;;10.93;2.47;;;;;;;15.30;100.00;100714.00;5029441;28;20246;-75
2021/09/24 07:38:37;;;;;;;8.67;3.00;;;;;;;15.33;100.00;100716.16;5019198;28;20323;-74
2021/09/24 07:41:02;;;;;;;9.87;2.20;;;;;;;15.43;100.00;100710.47;5033153;28;20245;-74
2021/09/24 07:43:28;;;;;;;6.57;2.10;;;;;;;15.44;100.00;100715.66;5014046;28;20215;-74
2021/09/24 07:45:56;;;;;;;9.97;2.50;;;;;;;15.65;100.00;100713.34;5030332;28;20243;-75
2021/09/24 07:48:24;;;;;;;12.43;2.77;;;;;;;15.56;100.00;100710.50;5019873;28;20195;-74
2021/09/24 07:50:50;;;;;;;11.93;3.40;;;;;;;15.69;100.00;100725.31;5016205;28;20211;-74
2021/09/24 07:53:21;;;;;;;9.88;2.97;;;;;;;15.62;100.00;100713.94;5033252;28;20233;-74
2021/09/24 07:55:49;;;;;;;9.38;3.25;;;;;;;15.63;100.00;100721.06;5029240;28;20579;-73
2021/09/24 07:58:14;;;;;;;8.15;2.95;;;;;;;15.50;100.00;100722.66;4997930;28;20200;-74
2021/09/24 08:00:40;;;;;;;8.27;2.63;;;;;;;15.65;100.00;100729.78;5029038;28;20216;-75
2021/09/24 08:03:06;;;;;;;9.50;2.70;;;;;;;15.50;100.00;100724.59;4997259;28;20184;-73
2021/09/24 08:05:31;;;;;;;6.25;2.60;;;;;;;15.59;100.00;100731.81;5012738;28;20254;-74
2021/09/24 08:07:57;;;;;;;6.13;2.57;;;;;;;15.42;100.00;100733.50;5029787;28;20732;-74
2021/09/24 08:10:25;;;;;;;9.17;2.77;;;;;;;15.50;100.00;100733.59;5013027;28;20704;-74
2021/09/24 08:12:54;;;;;;;9.60;2.67;;;;;;;15.56;100.00;100723.38;5029954;28;20215;-74
2021/09/24 08:15:22;;;;;;;9.60;3.00;;;;;;;15.65;100.00;100730.56;5032599;28;20215;-74
2021/09/24 08:17:52;;;;;;;7.63;2.28;;;;;;;15.59;100.00;100736.47;5049392;28;20237;-74
2021/09/24 08:20:17;;;;;;;10.05;3.00;;;;;;;15.72;100.00;100720.03;5040771;28;20669;-74
2021/09/24 08:22:47;;;;;;;8.30;2.80;;;;;;;15.74;100.00;100725.22;5020369;28;20216;-75
2021/09/24 08:25:22;;;;;;;8.73;2.88;;;;;;;15.82;100.00;100731.63;5008962;28;20219;-74
2021/09/24 08:27:50;;;;;;;10.17;3.10;;;;;;;15.85;100.00;100730.19;5033599;28;20205;-75
2021/09/24 08:30:16;;;;;;;12.50;3.47;;;;;;;15.98;100.00;100724.69;5025418;28;20184;-74
2021/09/24 08:32:41;;;;;;;11.98;3.20;;;;;;;15.99;100.00;100725.53;5017337;28;20188;-74
2021/09/24 08:35:09;;;;;;;11.65;3.00;;;;;;;16.01;100.00;100723.28;5000463;28;20204;-74
2021/09/24 08:37:35;;;;;;;9.15;3.10;;;;;;;16.00;100.00;100721.66;5033279;28;20196;-73
2021/09/24 08:40:04;;;;;;;9.37;2.73;;;;;;;15.93;100.00;100730.28;5001239;28;20253;-73
2021/09/24 08:42:33;;;;;;;7.30;2.53;;;;;;;16.03;100.00;100732.81;5033227;28;20216;-73
2021/09/24 08:45:01;;;;;;;6.30;2.33;;;;;;;16.19;100.00;100720.47;5042598;28;20184;-74
2021/09/24 08:47:27;;;;;;;8.68;2.67;;;;;;;16.15;100.00;100713.09;5031970;28;20290;-72
2021/09/24 08:49:53;;;;;;;7.13;2.28;;;;;;;16.27;100.00;100715.03;5004579;28;20188;-74
2021/09/24 08:52:21;;;;;;;10.15;2.85;;;;;;;16.29;100.00;100715.53;5034647;28;20224;-73
2021/09/24 08:54:50;;;;;;;10.73;2.93;;;;;;;16.46;100.00;100720.38;5015945;28;20216;-75
2021/09/24 08:57:16;;;;;;;8.52;2.63;;;;;;;16.49;100.00;100715.09;5033553;28;20705;-74
2021/09/24 08:59:41;;;;;;;8.13;2.42;;;;;;;16.60;100.00;100711.00;5020156;28;20199;-75
2021/09/24 09:02:08;;;;;;;9.48;2.60;;;;;;;16.56;100.00;100712.75;5052655;28;20219;-73
2021/09/24 09:04:44;;;;;;;6.45;2.50;;;;;;;16.65;100.00;100714.44;5020997;28;20176;-73
2021/09/24 09:07:16;;;;;;;5.65;2.45;;;;;;;16.86;100.00;100710.06;5020846;28;20258;-73
2021/09/24 09:09:44;;;;;;;11.00;2.50;;;;;;;16.72;100.00;100703.84;5018378;28;20184;-74
2021/09/24 09:12:13;;;;;;;6.20;2.42;;;;;;;16.73;100.00;100697.22;5016418;28;20232;-75
2021/09/24 09:14:38;;;;;;;10.23;2.53;;;;;;;16.72;100.00;100697.53;5034759;28;20246;-73
2021/09/24 09:17:31;;;;;;;5.25;2.10;;;;;;;16.84;100.00;100698.59;5052073;28;20227;-74
2021/09/24 09:20:13;;;;;;;8.98;2.47;;;;;;;17.04;100.00;100692.59;5025769;28;20202;-74
2021/09/24 09:22:43;;;;;;;8.77;2.53;;;;;;;17.03;100.00;100693.72;5016557;28;20250;-73
2021/09/24 09:25:26;;;;;;;7.72;2.20;;;;;;;17.07;100.00;100691.97;4984120;28;20581;-74
2021/09/24 09:27:53;;;;;;;7.75;2.25;;;;;;;17.17;100.00;100694.50;5016395;28;20203;-74
2021/09/24 09:30:19;;;;;;;4.85;2.35;;;;;;;17.30;100.00;100688.09;5015433;28;20543;-74
2021/09/24 09:33:10;;;;;;;7.70;2.55;;;;;;;17.13;100.00;100685.22;5016700;28;20255;-75
2021/09/24 09:35:37;;;;;;;9.57;2.20;;;;;;;17.13;100.00;100682.50;5037561;28;20223;-73
2021/09/24 09:38:03;;;;;;;7.80;2.53;;;;;;;17.28;100.00;100688.41;5003440;28;20250;-74
2021/09/24 09:40:29;;;;;;;10.38;2.78;;;;;;;17.52;100.00;100691.59;5031346;28;20224;-73
2021/09/24 09:42:59;;;;;;;7.28;2.67;;;;;;;17.66;100.00;100693.13;5000463;28;20181;-74
2021/09/24 09:45:25;;;;;;;8.02;2.42;;;;;;;17.63;100.00;100687.44;5035567;28;20616;-73
2021/09/24 09:47:51;;;;;;;8.55;2.70;;;;;;;18.15;100.00;100686.19;5035381;28;20207;-75
2021/09/24 09:50:20;;;;;;;6.65;2.45;;;;;;;18.14;100.00;100687.28;5042965;28;20187;-73
2021/09/24 09:52:55;;;;;;;4.22;2.40;;;;;;;18.12;100.00;100680.50;5019703;28;20172;-73
2021/09/24 09:55:25;;;;;;;8.35;2.65;;;;;;;18.12;100.00;100679.69;5017554;28;20248;-73
2021/09/24 09:57:59;;;;;;;8.98;2.65;;;;;;;18.07;100.00;100685.31;5032303;28;20193;-73
2021/09/24 10:00:26;;;;;;;9.30;2.53;;;;;;;18.11;100.00;100684.38;5000570;28;20184;-76
2021/09/24 10:03:07;;;;;;;4.65;2.15;;;;;;;18.27;100.00;100689.09;5019228;28;20744;-74
2021/09/24 10:05:41;;;;;;;7.25;2.30;;;;;;;18.74;100.00;100682.66;5036083;28;20219;-75
2021/09/24 10:08:22;;;;;;;7.10;2.50;;;;;;;18.75;100.00;100681.50;5019425;28;20226;-75
2021/09/24 10:10:56;;;;;;;6.25;2.13;;;;;;;18.99;100.00;100691.72;5048361;28;20224;-73
2021/09/24 10:13:23;;;;;;;7.35;2.45;;;;;;;18.88;100.00;100684.91;4999121;28;20211;-74
2021/09/24 10:15:49;;;;;;;7.63;3.38;;;;;;;19.00;100.00;100676.81;5001166;28;20243;-76
2021/09/24 10:18:17;;;;;;;6.57;2.53;;;;;;;19.06;100.00;100686.50;5030539;28;20277;-75
2021/09/24 10:20:43;;;;;;;5.88;2.30;;;;;;;18.80;100.00;100690.41;5009812;28;20718;-73
2021/09/24 10:23:11;;;;;;;6.57;2.47;;;;;;;18.82;100.00;100684.59;5015822;28;20645;-75
2021/09/24 10:25:36;;;;;;;7.35;2.70;;;;;;;18.60;100.00;100676.50;5031143;28;20227;-75
2021/09/24 10:28:06;;;;;;;6.25;2.35;;;;;;;18.45;100.00;100693.50;5014141;28;20920;-75
2021/09/24 10:30:32;;;;;;;4.82;2.30;;;;;;;18.49;100.00;100680.69;5031397;28;20592;-75
2021/09/24 10:33:01;;;;;;;7.10;2.67;;;;;;;18.45;100.00;100685.22;4982603;28;20192;-75
2021/09/24 10:35:53;;;;;;;5.88;2.17;;;;;;;18.78;100.00;100689.13;4998750;28;20226;-76
2021/09/24 10:38:23;;;;;;;8.23;2.40;;;;;;;18.50;100.00;100687.84;5035733;28;20286;-75
2021/09/24 10:41:05;;;;;;;5.40;2.60;;;;;;;18.48;100.00;100690.09;5034201;28;20221;-75
2021/09/24 10:43:45;;;;;;;7.25;2.80;;;;;;;18.33;100.00;100679.56;5015887;28;20172;-74
2021/09/24 10:46:33;;;;;;;5.28;2.60;;;;;;;18.33;100.00;100676.81;5015071;28;20333;-76
2021/09/24 10:49:19;;;;;;;5.30;2.30;;;;;;;18.31;100.00;100684.56;5018657;28;20199;-74
2021/09/24 10:51:57;;;;;;;6.53;2.45;;;;;;;18.26;100.00;100684.75;5044477;28;20634;-75
2021/09/24 10:54:30;;;;;;;7.75;3.22;;;;;;;18.30;100.00;100682.97;5025252;28;20222;-76
2021/09/24 10:57:10;;;;;;;8.52;3.10;;;;;;;18.55;100.00;100677.47;5037746;28;20307;-75
2021/09/24 10:59:36;;;;;;;6.57;3.13;;;;;;;18.81;100.00;100677.44;5038812;28;20200;-75
2021/09/24 11:02:36;;;;;;;5.00;2.78;;;;;;;18.36;100.00;100676.16;5017273;28;20216;-78
2021/09/24 11:05:04;;;;;;;6.80;2.58;;;;;;;18.52;100.00;100680.06;5026483;28;20238;-76
2021/09/24 11:07:32;;;;;;;6.03;3.10;;;;;;;18.48;100.00;100683.75;5012794;28;20211;-78
2021/09/24 11:10:01;;;;;;;6.95;3.08;;;;;;;18.54;100.00;100683.28;5013452;28;20574;-77
2021/09/24 11:12:26;;;;;;;7.28;3.10;;;;;;;18.70;100.00;100681.66;5017811;28;20227;-75
2021/09/24 11:15:08;;;;;;;6.13;2.92;;;;;;;18.59;100.00;100686.69;5020413;28;20682;-78
2021/09/24 11:17:46;;;;;;;6.70;3.63;;;;;;;18.75;100.00;100689.75;5019007;28;20258;-76